Time;durP1;ratioP1;P1;durP2;ratioP2;P2;SDS_P1;SDS_P2;PMS_P1;PMS_P2;Temp;Humidity;BMP_temperature;BMP_pressure;BME280_temperature;BME280_humidity;BME280_pressure;Samples;Min_cycle;Max_cycle;Signal;HPM_P1;HPM_P2
2022/01/30 00:00:25;;;;;;;29.85;4.35;;;;;;;3.23;49.31;101751.00;5021909;28;20292;-72
2022/01/30 00:02:53;;;;;;;33.30;3.83;;;;;;;2.70;50.40;101757.59;5021335;28;20041;-71
2022/01/30 00:05:19;;;;;;;34.97;3.75;;;;;;;3.01;49.84;101768.97;5020604;28;20055;-72
2022/01/30 00:07:44;;;;;;;27.83;4.22;;;;;;;3.15;49.64;101766.47;5021168;28;20033;-71
2022/01/30 00:10:12;;;;;;;30.92;3.38;;;;;;;3.36;49.08;101755.41;5004050;28;20136;-72
2022/01/30 00:15:07;;;;;;;32.03;3.08;;;;;;;3.12;49.50;101758.69;5021087;28;20041;-73
2022/01/30 00:17:39;;;;;;;37.20;5.75;;;;;;;2.88;50.48;101757.69;5021659;28;20079;-72
2022/01/30 00:20:11;;;;;;;22.48;3.17;;;;;;;2.80;50.68;101763.66;5022373;28;20090;-72
2022/01/30 00:22:51;;;;;;;13.80;2.10;;;;;;;2.85;50.71;101772.31;5021261;28;20144;-72
2022/01/30 00:25:26;;;;;;;28.20;2.60;;;;;;;2.86;50.42;101789.53;5028368;28;20077;-72
2022/01/30 00:28:05;;;;;;;27.90;3.08;;;;;;;3.01;50.58;101810.28;5022339;28;20033;-73
2022/01/30 00:30:34;;;;;;;30.33;3.80;;;;;;;2.91;50.82;101819.72;5020298;28;20052;-72
2022/01/30 00:33:03;;;;;;;18.48;2.83;;;;;;;2.66;51.12;101791.97;5012016;28;20494;-72
2022/01/30 00:35:29;;;;;;;23.55;3.45;;;;;;;2.88;50.75;101782.66;5019942;28;20080;-72
2022/01/30 00:37:55;;;;;;;23.65;2.15;;;;;;;3.13;49.88;101774.19;5020243;28;20084;-72
2022/01/30 00:40:21;;;;;;;24.35;3.22;;;;;;;3.04;49.68;101766.38;5016325;28;20045;-72
2022/01/30 00:42:46;;;;;;;17.05;3.53;;;;;;;3.24;49.58;101770.81;5003275;28;20399;-72
2022/01/30 00:45:12;;;;;;;29.85;3.03;;;;;;;2.91;49.88;101752.56;5020011;28;20053;-72
2022/01/30 00:47:37;;;;;;;21.42;2.33;;;;;;;3.09;49.15;101762.13;5037834;28;20426;-72
2022/01/30 00:50:04;;;;;;;18.35;3.30;;;;;;;2.64;50.06;101779.03;5002508;28;20076;-72
2022/01/30 00:52:29;;;;;;;35.45;4.72;;;;;;;2.79;48.89;101752.47;4991226;28;20046;-72
2022/01/30 00:54:55;;;;;;;22.52;3.30;;;;;;;2.86;49.02;101784.38;5016499;28;20056;-72
2022/01/30 00:57:20;;;;;;;21.08;2.85;;;;;;;2.97;49.29;101821.44;5018155;28;20029;-73
2022/01/30 00:59:46;;;;;;;19.10;2.55;;;;;;;3.05;50.57;101855.09;5025281;28;20730;-73
2022/01/30 01:02:12;;;;;;;16.25;1.40;;;;;;;2.14;54.60;101834.50;5019172;28;20032;-73
2022/01/30 01:04:37;;;;;;;18.33;2.63;;;;;;;2.20;55.88;101854.34;5008420;28;20110;-72
2022/01/30 01:07:03;;;;;;;28.85;4.10;;;;;;;2.25;55.64;101850.09;5016184;28;20041;-72
2022/01/30 01:09:36;;;;;;;20.30;3.28;;;;;;;2.56;54.61;101847.81;5011113;28;20044;-73
2022/01/30 01:25:43;;;;;;;39.67;4.43;;;;;;;2.47;52.54;101847.75;5024454;28;20057;-72
2022/01/30 01:28:09;;;;;;;37.60;4.07;;;;;;;2.83;51.07;101846.31;5011738;28;20036;-71
2022/01/30 01:30:34;;;;;;;42.17;4.20;;;;;;;2.77;50.57;101857.44;5025391;28;20033;-72
2022/01/30 01:33:02;;;;;;;22.42;4.78;;;;;;;3.21;48.89;101861.22;5025705;28;20537;-72
2022/01/30 01:35:27;;;;;;;44.75;5.22;;;;;;;3.13;49.03;101856.84;5025632;28;20494;-72
2022/01/30 01:37:55;;;;;;;31.77;3.50;;;;;;;3.32;48.18;101872.53;5025113;28;20033;-71
2022/01/30 01:40:21;;;;;;;20.95;2.83;;;;;;;3.05;48.85;101866.28;5021126;28;20409;-70
2022/01/30 01:42:47;;;;;;;31.05;4.40;;;;;;;2.67;48.87;101861.69;5025639;28;20040;-71
2022/01/30 01:45:19;;;;;;;34.33;4.47;;;;;;;2.97;48.00;101879.13;5038453;28;20060;-71
2022/01/30 01:47:45;;;;;;;39.00;4.72;;;;;;;3.52;46.57;101876.09;5024233;28;20465;-71
2022/01/30 01:50:17;;;;;;;34.30;4.15;;;;;;;3.38;46.42;101890.63;5021509;28;20049;-71
2022/01/30 01:52:43;;;;;;;24.70;2.42;;;;;;;3.20;46.66;101891.34;5025635;28;20341;-70
2022/01/30 01:55:09;;;;;;;31.77;4.30;;;;;;;3.07;46.28;101867.16;5021798;28;20049;-70
2022/01/30 01:57:36;;;;;;;34.42;4.78;;;;;;;3.49;45.77;101890.72;5022706;28;20120;-70
2022/01/30 02:00:10;;;;;;;23.15;3.70;;;;;;;3.81;44.86;101883.13;5024366;28;20396;-70
2022/01/30 02:02:41;;;;;;;16.30;2.03;;;;;;;3.34;45.41;101886.31;5024309;28;20512;-71
2022/01/30 02:05:09;;;;;;;23.40;4.32;;;;;;;3.31;46.30;101886.28;5024431;28;20033;-70
2022/01/30 02:10:05;;;;;;;30.17;5.05;;;;;;;2.84;47.23;101873.84;5040181;28;20053;-73
2022/01/30 02:12:40;;;;;;;26.95;4.22;;;;;;;3.01;47.14;101885.19;5023262;28;20399;-71
2022/01/30 02:24:18;;;;;;;23.58;2.92;;;;;;;3.10;46.82;101881.81;4975473;28;20084;-70
2022/01/30 02:26:43;;;;;;;32.40;4.18;;;;;;;2.99;46.98;101868.81;5009976;28;20210;-70
2022/01/30 02:29:11;;;;;;;31.92;5.18;;;;;;;3.39;46.21;101884.63;5022354;28;20510;-70
2022/01/30 02:31:40;;;;;;;27.38;3.00;;;;;;;3.07;46.63;101882.66;5028565;28;20127;-70
2022/01/30 02:34:06;;;;;;;32.95;3.88;;;;;;;3.28;45.96;101881.06;5023540;28;20047;-69
2022/01/30 02:36:32;;;;;;;36.17;4.80;;;;;;;3.11;46.89;101878.38;5023495;28;20025;-71
2022/01/30 02:38:59;;;;;;;36.35;5.65;;;;;;;3.04;47.57;101882.63;5012870;28;20068;-72
2022/01/30 02:41:26;;;;;;;30.90;4.03;;;;;;;2.89;48.05;101874.75;5025818;28;20064;-72
2022/01/30 02:46:35;;;;;;;18.33;3.50;;;;;;;3.09;46.35;101880.06;5038402;28;20037;-73
2022/01/30 02:49:12;;;;;;;25.88;4.47;;;;;;;2.94;46.64;101880.84;5022119;28;20078;-72
2022/01/30 02:51:47;;;;;;;42.55;5.03;;;;;;;3.04;46.08;101892.97;5024939;28;20855;-73
2022/01/30 02:54:13;;;;;;;36.33;5.88;;;;;;;3.54;45.06;101895.06;5024662;28;20223;-72
2022/01/30 02:56:40;;;;;;;31.88;2.78;;;;;;;3.15;45.69;101908.53;5022602;28;20032;-71
2022/01/30 02:59:06;;;;;;;27.45;3.13;;;;;;;3.23;45.34;101911.19;5039775;28;20034;-73
2022/01/30 03:01:32;;;;;;;36.42;5.88;;;;;;;2.92;45.18;101918.69;5037846;28;20032;-72
2022/01/30 03:03:58;;;;;;;21.70;3.22;;;;;;;3.33;43.81;101925.94;5036744;28;20045;-73
2022/01/30 03:06:24;;;;;;;28.20;4.53;;;;;;;3.07;43.42;101917.94;5027019;28;20534;-72
2022/01/30 03:08:49;;;;;;;29.33;3.38;;;;;;;3.52;41.90;101917.44;5036938;28;20136;-73
2022/01/30 03:11:15;;;;;;;34.13;3.15;;;;;;;3.42;41.24;101923.41;5023507;28;20120;-72
2022/01/30 03:13:40;;;;;;;30.25;4.30;;;;;;;3.40;41.54;101922.53;5020102;28;20692;-72
2022/01/30 03:16:07;;;;;;;27.15;4.55;;;;;;;3.35;41.84;101934.56;5031488;28;20026;-72
2022/01/30 03:18:32;;;;;;;24.02;3.05;;;;;;;3.26;42.15;101939.63;5007709;28;20536;-72
2022/01/30 03:20:58;;;;;;;26.17;3.15;;;;;;;3.23;42.40;101949.97;5039620;28;20048;-73
2022/01/30 03:23:24;;;;;;;24.25;4.00;;;;;;;3.17;43.02;101946.44;5020786;28;20089;-72
2022/01/30 03:25:55;;;;;;;25.40;5.85;;;;;;;3.45;42.14;101948.41;5008670;28;20029;-73
2022/01/30 03:28:27;;;;;;;26.52;3.78;;;;;;;3.40;42.45;101950.94;5024037;28;20120;-73
2022/01/30 03:31:05;;;;;;;23.58;3.58;;;;;;;3.00;44.40;101955.75;5026551;28;20363;-72
2022/01/30 03:33:41;;;;;;;31.70;4.00;;;;;;;3.60;43.73;101958.84;5019729;28;20052;-72
2022/01/30 03:36:06;;;;;;;32.22;5.40;;;;;;;3.00;45.14;101940.28;5024276;28;20555;-72
2022/01/30 03:38:32;;;;;;;38.00;4.60;;;;;;;3.52;44.49;101958.81;5033128;28;20242;-73
2022/01/30 03:40:58;;;;;;;37.28;4.72;;;;;;;2.81;46.65;101957.31;5021797;28;20064;-72
2022/01/30 03:43:24;;;;;;;40.90;5.10;;;;;;;3.03;46.23;101963.56;5036942;28;20087;-72
2022/01/30 03:45:50;;;;;;;41.58;5.80;;;;;;;3.32;45.66;101955.22;5031377;28;20033;-72
2022/01/30 03:48:16;;;;;;;41.70;6.07;;;;;;;3.12;45.57;101962.78;5038847;28;20079;-72
2022/01/30 03:51:00;;;;;;;27.38;4.88;;;;;;;2.81;45.05;101948.72;5024650;28;20090;-72
2022/01/30 03:53:26;;;;;;;22.65;3.95;;;;;;;3.05;43.53;101961.00;5022102;28;20045;-72
2022/01/30 03:55:51;;;;;;;21.83;3.55;;;;;;;2.89;42.07;101959.97;5022075;28;20104;-72
2022/01/30 03:58:27;;;;;;;27.85;4.13;;;;;;;2.98;41.64;101963.53;5011240;28;20059;-72
2022/01/30 04:00:53;;;;;;;28.38;3.17;;;;;;;2.85;41.57;101968.56;5025376;28;20692;-72
2022/01/30 04:03:20;;;;;;;32.25;4.30;;;;;;;3.50;40.04;101967.41;5028633;28;20029;-72
2022/01/30 04:05:45;;;;;;;19.73;2.53;;;;;;;3.54;40.04;101964.84;5025493;28;20049;-73
2022/01/30 04:08:11;;;;;;;18.52;3.03;;;;;;;3.37;39.67;101961.28;5006675;28;20067;-75
2022/01/30 04:10:40;;;;;;;21.35;3.50;;;;;;;2.86;40.04;101965.97;5022164;28;20578;-74
2022/01/30 04:13:23;;;;;;;20.38;2.85;;;;;;;3.36;39.31;101972.50;5010119;28;20045;-75
2022/01/30 04:15:57;;;;;;;21.10;2.78;;;;;;;3.38;39.89;101971.66;5029365;28;20041;-74
2022/01/30 04:18:38;;;;;;;30.25;3.78;;;;;;;3.39;40.37;101963.03;5019966;28;20077;-73
2022/01/30 04:21:24;;;;;;;19.95;3.28;;;;;;;3.26;40.99;101971.50;5011255;28;20104;-73
2022/01/30 04:24:22;;;;;;;17.45;3.05;;;;;;;3.37;41.29;101963.88;5016992;28;20429;-74
2022/01/30 04:27:07;;;;;;;33.83;6.10;;;;;;;3.24;42.21;101970.63;5022212;28;20095;-75
2022/01/30 04:29:53;;;;;;;30.83;4.85;;;;;;;3.30;42.32;101982.78;5025041;28;20037;-72
2022/01/30 04:32:42;;;;;;;33.22;4.13;;;;;;;3.11;43.79;101982.59;5026558;28;20078;-73
2022/01/30 04:35:39;;;;;;;24.02;3.47;;;;;;;3.17;44.18;101992.09;5020200;28;20402;-73
2022/01/30 04:53:10;;;;;;;24.00;5.30;;;;;;;2.87;42.51;102034.88;5022191;28;20862;-74
2022/01/30 04:59:29;;;;;;;28.38;3.88;;;;;;;3.57;41.45;102038.97;5028407;28;20087;-75
2022/01/30 05:03:19;;;;;;;25.40;5.25;;;;;;;3.32;41.66;102033.59;5012375;28;20120;-72
2022/01/30 05:08:33;;;;;;;21.73;3.72;;;;;;;3.47;41.73;102027.72;5021397;28;20047;-75
2022/01/30 05:11:11;;;;;;;34.30;4.78;;;;;;;3.26;42.09;102037.81;5025371;28;20065;-75
2022/01/30 05:13:58;;;;;;;24.23;4.50;;;;;;;3.14;42.82;102039.44;5022714;28;20049;-74
2022/01/30 05:16:56;;;;;;;37.35;4.80;;;;;;;3.11;43.98;102048.88;5002525;28;20139;-73
2022/01/30 05:19:41;;;;;;;28.05;4.28;;;;;;;2.70;45.59;102068.22;5019532;28;20106;-74
2022/01/30 05:22:39;;;;;;;29.13;4.55;;;;;;;3.28;44.87;102082.63;5013671;28;20506;-72
2022/01/30 05:25:34;;;;;;;25.02;4.15;;;;;;;3.23;43.82;102084.31;5003076;28;20053;-73
2022/01/30 05:28:08;;;;;;;20.83;3.60;;;;;;;3.50;42.70;102084.59;5023996;28;20086;-75
2022/01/30 05:30:40;;;;;;;28.50;4.00;;;;;;;2.87;42.68;102093.41;5035528;28;20107;-75
2022/01/30 05:33:18;;;;;;;28.63;4.97;;;;;;;2.81;41.92;102091.59;5022900;28;20041;-75
2022/01/30 05:36:04;;;;;;;27.20;3.45;;;;;;;2.72;40.74;102105.25;5023478;28;20076;-74
2022/01/30 05:38:52;;;;;;;25.63;4.03;;;;;;;2.37;40.78;102091.03;5021686;28;20048;-74
2022/01/30 05:41:39;;;;;;;25.00;3.45;;;;;;;2.80;39.91;102114.81;5034972;28;20037;-74
2022/01/30 05:44:32;;;;;;;16.63;2.08;;;;;;;2.63;40.27;102107.72;5022592;28;20493;-74
2022/01/30 05:47:30;;;;;;;18.65;1.80;;;;;;;2.96;39.52;102111.59;5015968;28;20045;-74
2022/01/30 05:50:12;;;;;;;17.70;2.22;;;;;;;2.88;39.68;102097.69;5023424;28;20661;-73
2022/01/30 05:52:46;;;;;;;21.75;3.15;;;;;;;2.83;39.82;102102.81;5010179;28;20044;-74
2022/01/30 05:55:17;;;;;;;27.05;3.45;;;;;;;2.88;39.78;102102.88;5029355;28;20040;-74
2022/01/30 05:57:43;;;;;;;27.70;3.00;;;;;;;3.02;39.79;102103.88;5024151;28;20789;-74
2022/01/30 06:00:13;;;;;;;16.48;3.47;;;;;;;2.73;39.09;102122.50;5028441;28;20043;-73
2022/01/30 06:02:57;;;;;;;23.77;3.03;;;;;;;2.56;39.54;102126.56;5026348;28;20106;-74
2022/01/30 06:05:25;;;;;;;16.30;2.50;;;;;;;2.94;38.34;102123.59;5024197;28;20049;-73
2022/01/30 06:07:55;;;;;;;12.45;2.28;;;;;;;2.79;37.59;102141.50;5040999;28;21442;-74
2022/01/30 06:10:26;;;;;;;15.05;1.98;;;;;;;3.11;37.10;102134.13;5008990;28;20134;-72
2022/01/30 06:12:52;;;;;;;10.68;1.75;;;;;;;2.77;37.20;102132.00;5011291;28;20033;-72
2022/01/30 06:15:18;;;;;;;11.75;1.67;;;;;;;3.16;37.12;102137.63;5039335;28;20037;-70
2022/01/30 06:17:45;;;;;;;26.50;2.30;;;;;;;3.29;37.67;102130.91;5029091;28;20032;-72
2022/01/30 06:20:29;;;;;;;19.00;3.13;;;;;;;2.99;38.43;102132.25;5023494;28;20643;-73
2022/01/30 06:23:26;;;;;;;10.95;1.65;;;;;;;2.70;38.89;102140.50;4991697;28;20549;-73
2022/01/30 06:26:12;;;;;;;16.27;2.38;;;;;;;2.87;38.40;102147.63;4998554;28;20037;-73
2022/01/30 06:29:07;;;;;;;15.48;2.10;;;;;;;2.65;39.09;102147.34;5024464;28;20506;-74
2022/01/30 06:31:51;;;;;;;16.80;2.15;;;;;;;2.77;38.96;102131.13;5027379;28;20084;-73
2022/01/30 06:34:45;;;;;;;26.40;4.53;;;;;;;2.75;39.41;102143.16;5024899;28;20120;-73
2022/01/30 06:37:34;;;;;;;13.05;2.45;;;;;;;3.13;38.98;102143.59;5022110;28;20045;-74
2022/01/30 06:40:05;;;;;;;19.63;2.22;;;;;;;2.56;40.20;102137.75;5023736;28;20082;-74
2022/01/30 06:42:53;;;;;;;19.10;2.85;;;;;;;2.83;40.18;102162.19;4992455;28;20037;-72
2022/01/30 06:45:37;;;;;;;21.38;2.45;;;;;;;2.94;40.26;102141.69;5023314;28;20063;-74
2022/01/30 06:48:22;;;;;;;20.40;3.30;;;;;;;2.61;40.83;102149.84;5023350;28;20536;-70
2022/01/30 06:51:07;;;;;;;19.45;3.60;;;;;;;2.50;40.78;102149.72;5026590;28;20595;-74
2022/01/30 06:53:50;;;;;;;29.42;2.72;;;;;;;2.63;40.40;102164.53;5023509;28;20111;-73
2022/01/30 06:56:35;;;;;;;16.58;2.47;;;;;;;3.26;38.71;102129.13;5026197;28;20240;-74
2022/01/30 06:59:33;;;;;;;22.75;2.58;;;;;;;2.99;40.07;102152.94;5014165;28;20041;-73
2022/01/30 07:02:17;;;;;;;32.60;3.65;;;;;;;3.01;40.69;102140.91;5024138;28;20039;-74
2022/01/30 07:05:03;;;;;;;31.20;3.33;;;;;;;3.03;40.99;102154.72;5035537;28;20624;-72
2022/01/30 07:07:36;;;;;;;27.52;3.28;;;;;;;2.72;41.54;102138.81;5019843;28;20513;-73
2022/01/30 07:10:02;;;;;;;32.35;3.63;;;;;;;2.55;42.53;102135.13;5021503;28;20055;-73
2022/01/30 07:12:27;;;;;;;14.00;3.30;;;;;;;2.76;41.42;102127.69;5030823;28;20040;-75
2022/01/30 07:14:53;;;;;;;28.23;3.55;;;;;;;2.48;41.94;102133.31;5036988;28;20412;-75
2022/01/30 07:17:18;;;;;;;26.92;3.25;;;;;;;2.79;41.44;102133.75;5021927;28;20037;-75
2022/01/30 07:19:44;;;;;;;23.35;3.40;;;;;;;2.34;42.07;102141.75;5022947;28;20043;-74
2022/01/30 07:22:09;;;;;;;17.83;2.85;;;;;;;2.75;40.16;102144.00;5021637;28;20104;-75
2022/01/30 07:24:35;;;;;;;23.48;2.42;;;;;;;2.74;39.16;102162.94;5014555;28;20452;-75
2022/01/30 07:27:00;;;;;;;27.77;3.05;;;;;;;2.73;39.15;102150.00;5026593;28;20317;-77
2022/01/30 07:29:26;;;;;;;20.35;3.72;;;;;;;2.91;38.37;102149.38;5024098;28;20060;-75
2022/01/30 07:31:51;;;;;;;22.70;2.97;;;;;;;2.84;39.27;102163.91;5021932;28;20030;-76
2022/01/30 07:34:20;;;;;;;33.25;3.80;;;;;;;3.01;38.95;102165.88;5037180;28;20259;-76
2022/01/30 07:36:46;;;;;;;33.58;3.40;;;;;;;2.91;39.72;102154.53;5028269;28;20569;-75
2022/01/30 07:39:12;;;;;;;31.48;3.72;;;;;;;2.86;39.67;102158.78;5023178;28;20078;-75
2022/01/30 07:41:38;;;;;;;25.05;3.53;;;;;;;2.66;41.05;102166.25;5038694;28;20501;-75
2022/01/30 07:44:05;;;;;;;41.20;4.07;;;;;;;2.54;42.45;102169.56;5021399;28;20412;-73
2022/01/30 07:46:33;;;;;;;48.95;6.97;;;;;;;2.68;42.96;102190.41;5024064;28;20407;-74
2022/01/30 07:48:59;;;;;;;41.60;5.28;;;;;;;3.13;41.77;102184.09;5027066;28;20057;-75
2022/01/30 07:51:24;;;;;;;38.75;4.35;;;;;;;2.51;42.89;102191.03;5011815;28;20045;-75
2022/01/30 07:53:50;;;;;;;26.45;4.82;;;;;;;2.57;43.11;102197.97;5022125;28;20936;-75
2022/01/30 07:56:16;;;;;;;17.58;3.63;;;;;;;3.12;41.69;102206.47;5021518;28;20402;-75
2022/01/30 07:58:41;;;;;;;27.10;4.22;;;;;;;2.98;41.40;102218.38;5022418;28;20045;-75
2022/01/30 08:01:07;;;;;;;29.15;5.22;;;;;;;3.32;40.93;102218.81;5008655;28;20623;-75
2022/01/30 08:03:33;;;;;;;30.52;4.90;;;;;;;3.17;41.42;102230.66;5022147;28;20036;-75
2022/01/30 08:05:59;;;;;;;33.08;4.93;;;;;;;3.32;40.51;102239.50;5021364;28;20041;-75
2022/01/30 08:08:25;;;;;;;37.90;4.32;;;;;;;3.01;40.81;102238.19;5022571;28;20045;-72
2022/01/30 08:10:51;;;;;;;38.30;3.65;;;;;;;3.26;39.90;102237.66;5036200;28;20330;-72
2022/01/30 08:13:16;;;;;;;27.73;3.58;;;;;;;3.10;39.92;102251.22;5037470;28;20084;-72
2022/01/30 08:15:46;;;;;;;30.73;3.45;;;;;;;3.09;40.29;102247.78;5021841;28;20090;-72
2022/01/30 08:18:12;;;;;;;27.08;5.07;;;;;;;3.46;39.48;102232.75;5023427;28;20135;-72
2022/01/30 08:20:38;;;;;;;21.98;3.50;;;;;;;3.21;41.00;102246.22;5036407;28;20047;-72
2022/01/30 08:23:15;;;;;;;33.72;4.25;;;;;;;3.34;41.29;102255.88;5020743;28;20041;-72
2022/01/30 08:25:42;;;;;;;30.83;5.70;;;;;;;3.63;40.54;102261.41;5035232;28;20523;-72
2022/01/30 08:28:08;;;;;;;33.15;4.90;;;;;;;4.01;39.02;102260.94;5022191;28;20033;-72
2022/01/30 08:30:34;;;;;;;31.35;3.92;;;;;;;3.85;39.14;102272.84;5022282;28;20304;-71
2022/01/30 08:33:02;;;;;;;35.42;6.03;;;;;;;4.20;39.06;102273.16;5022785;28;20042;-72
2022/01/30 08:35:28;;;;;;;43.47;4.78;;;;;;;5.33;37.18;102274.81;5020126;28;20052;-71
2022/01/30 08:37:54;;;;;;;32.20;4.57;;;;;;;6.04;36.13;102286.28;5020789;28;20039;-72
2022/01/30 08:40:21;;;;;;;25.60;5.00;;;;;;;5.52;36.80;102291.31;5022794;28;20045;-72
2022/01/30 08:42:48;;;;;;;31.23;4.07;;;;;;;4.77;38.87;102283.13;5005654;28;20060;-73
2022/01/30 08:45:17;;;;;;;20.85;4.75;;;;;;;4.08;40.03;102264.44;5019618;28;20033;-72
2022/01/30 08:47:45;;;;;;;37.35;4.43;;;;;;;3.70;41.33;102270.09;5036689;28;20626;-72
2022/01/30 08:50:12;;;;;;;32.42;5.22;;;;;;;3.68;42.26;102258.84;5020642;28;20156;-71
2022/01/30 08:52:38;;;;;;;35.78;5.32;;;;;;;3.58;42.21;102273.38;5018054;28;20067;-72
2022/01/30 08:55:07;;;;;;;23.92;4.47;;;;;;;3.40;42.79;102268.84;5019364;28;20114;-71
2022/01/30 08:57:33;;;;;;;29.48;5.10;;;;;;;3.43;42.62;102275.81;5020545;28;20029;-72
2022/01/30 08:59:59;;;;;;;39.25;6.00;;;;;;;3.55;41.99;102283.69;5035578;28;20173;-71
2022/01/30 09:02:26;;;;;;;28.95;3.35;;;;;;;3.75;41.74;102307.19;5021733;28;20033;-72
2022/01/30 09:04:52;;;;;;;31.25;3.65;;;;;;;4.45;40.47;102311.34;5017454;28;20326;-72
2022/01/30 09:07:19;;;;;;;26.10;4.07;;;;;;;4.51;39.56;102321.75;5027905;28;20152;-72
2022/01/30 09:09:45;;;;;;;35.75;5.15;;;;;;;4.35;39.16;102316.44;5018474;28;20399;-72
2022/01/30 09:12:12;;;;;;;28.08;5.45;;;;;;;4.75;38.23;102319.38;5010599;28;20033;-72
2022/01/30 09:14:39;;;;;;;21.60;4.45;;;;;;;4.53;38.51;102336.44;5025548;28;20363;-73
2022/01/30 09:17:14;;;;;;;26.60;4.65;;;;;;;4.94;37.67;102343.69;5024127;28;20091;-72
2022/01/30 09:19:41;;;;;;;41.38;4.55;;;;;;;4.63;38.46;102338.28;5032388;28;20073;-71
2022/01/30 09:22:08;;;;;;;44.88;6.05;;;;;;;4.52;38.06;102358.03;5023021;28;20039;-71
2022/01/30 09:24:35;;;;;;;23.55;4.57;;;;;;;3.59;38.38;102363.91;5021276;28;20128;-72
2022/01/30 09:27:00;;;;;;;15.23;3.20;;;;;;;3.32;38.51;102384.22;5026834;28;20670;-72
2022/01/30 09:29:27;;;;;;;37.15;3.67;;;;;;;3.99;37.43;102385.09;5019981;28;20581;-72
2022/01/30 09:31:52;;;;;;;32.15;5.22;;;;;;;5.00;35.96;102390.41;5013014;28;20560;-72
2022/01/30 09:34:18;;;;;;;26.08;4.35;;;;;;;5.43;34.87;102405.38;5022571;28;20128;-72
2022/01/30 09:36:43;;;;;;;28.00;4.15;;;;;;;4.92;35.03;102401.56;5036408;28;20510;-72
2022/01/30 09:39:09;;;;;;;16.98;3.15;;;;;;;4.72;34.98;102393.56;5035625;28;20044;-74
2022/01/30 09:41:36;;;;;;;33.30;3.92;;;;;;;5.38;33.75;102397.56;5040742;28;20491;-72
2022/01/30 09:44:02;;;;;;;26.08;3.60;;;;;;;5.14;34.34;102392.22;5007794;28;20049;-71
2022/01/30 09:46:32;;;;;;;21.50;2.47;;;;;;;5.11;34.00;102402.56;5012612;28;20505;-72
2022/01/30 09:48:59;;;;;;;24.73;2.95;;;;;;;5.41;33.85;102397.59;5024050;28;20075;-73
2022/01/30 09:51:26;;;;;;;25.02;4.25;;;;;;;5.24;34.59;102400.06;5021169;28;20128;-72
2022/01/30 09:53:51;;;;;;;19.38;3.15;;;;;;;5.41;34.71;102401.91;5034687;28;20045;-73
2022/01/30 09:56:18;;;;;;;26.38;4.00;;;;;;;5.66;34.86;102413.31;5020613;28;20497;-72
2022/01/30 09:58:45;;;;;;;31.52;3.58;;;;;;;4.54;37.02;102418.47;5012011;28;20046;-72
2022/01/30 10:01:11;;;;;;;29.75;3.83;;;;;;;4.81;36.77;102411.78;5021835;28;20029;-72
2022/01/30 10:03:37;;;;;;;22.02;3.58;;;;;;;4.69;38.30;102407.38;5019095;28;21011;-73
2022/01/30 10:06:05;;;;;;;31.80;4.97;;;;;;;4.24;39.28;102392.25;5025861;28;20911;-72
2022/01/30 10:08:31;;;;;;;26.23;4.20;;;;;;;4.75;39.04;102407.44;5037384;28;20049;-71
2022/01/30 10:11:15;;;;;;;28.42;4.47;;;;;;;5.03;39.03;102405.09;5014027;28;20434;-72
2022/01/30 10:13:42;;;;;;;34.55;4.93;;;;;;;4.80;39.72;102420.44;5004494;28;20401;-72
2022/01/30 10:16:08;;;;;;;51.15;6.18;;;;;;;4.23;41.44;102425.03;5022479;28;20033;-73
2022/01/30 10:18:43;;;;;;;33.00;4.22;;;;;;;4.77;40.61;102434.22;5012175;28;20051;-71
2022/01/30 10:21:20;;;;;;;30.90;3.92;;;;;;;5.08;40.44;102444.00;5033770;28;20536;-72
2022/01/30 10:23:45;;;;;;;39.40;5.78;;;;;;;5.28;40.15;102451.94;5020954;28;20045;-72
2022/01/30 10:26:18;;;;;;;34.58;4.68;;;;;;;5.30;39.26;102458.00;5029687;28;20033;-73
2022/01/30 10:28:44;;;;;;;33.72;5.07;;;;;;;4.36;39.42;102464.84;5022956;28;20049;-73
2022/01/30 10:31:09;;;;;;;38.08;4.57;;;;;;;4.14;38.87;102448.19;5038235;28;20091;-72
2022/01/30 10:33:47;;;;;;;24.98;4.63;;;;;;;4.10;38.76;102475.78;5036474;28;20526;-71
2022/01/30 10:36:22;;;;;;;20.83;3.70;;;;;;;4.43;37.93;102485.69;5020465;28;20029;-75
2022/01/30 10:39:17;;;;;;;28.75;3.65;;;;;;;4.32;37.72;102500.22;5005419;28;20108;-72
2022/01/30 10:41:53;;;;;;;21.48;2.97;;;;;;;5.00;36.91;102503.56;5026915;28;20102;-71
2022/01/30 10:44:19;;;;;;;27.15;3.00;;;;;;;4.97;36.23;102508.72;5024818;28;20243;-73
2022/01/30 10:46:48;;;;;;;26.92;3.65;;;;;;;4.17;37.53;102507.78;5035396;28;20671;-72
2022/01/30 10:49:14;;;;;;;30.95;4.07;;;;;;;4.63;36.61;102509.22;5018752;28;20049;-71
2022/01/30 10:52:01;;;;;;;32.72;3.85;;;;;;;5.24;35.89;102508.09;5023447;28;20037;-71
2022/01/30 10:54:32;;;;;;;25.10;3.50;;;;;;;4.89;36.25;102494.81;5020055;28;20324;-72
2022/01/30 10:57:04;;;;;;;18.40;3.60;;;;;;;5.28;36.01;102491.72;5023000;28;20138;-71
2022/01/30 10:59:34;;;;;;;23.63;2.72;;;;;;;4.50;36.67;102496.06;5033291;28;20498;-71
2022/01/30 11:02:17;;;;;;;26.65;3.17;;;;;;;4.30;36.76;102501.91;5022265;28;20033;-71
2022/01/30 11:04:44;;;;;;;21.27;3.35;;;;;;;3.58;37.23;102493.16;5019882;28;20666;-71
2022/01/30 11:07:10;;;;;;;32.38;3.40;;;;;;;4.42;36.74;102499.47;5035540;28;20033;-72
2022/01/30 11:12:09;;;;;;;27.92;3.13;;;;;;;3.72;37.94;102506.31;5022185;28;20040;-72
2022/01/30 11:14:51;;;;;;;25.17;3.35;;;;;;;4.25;37.04;102502.69;5021331;28;20075;-71
2022/01/30 11:17:22;;;;;;;38.10;4.90;;;;;;;4.23;37.31;102500.09;5023721;28;20044;-71
2022/01/30 11:19:52;;;;;;;20.15;3.10;;;;;;;4.78;37.59;102502.44;5020422;28;20528;-70
2022/01/30 11:22:29;;;;;;;32.08;5.72;;;;;;;4.38;37.81;102515.78;5020513;28;20193;-71
2022/01/30 11:25:07;;;;;;;40.45;4.53;;;;;;;4.73;37.92;102519.66;5022795;28;20083;-71
2022/01/30 11:27:34;;;;;;;14.20;2.47;;;;;;;4.40;37.99;102529.63;5018040;28;20082;-71
2022/01/30 11:30:00;;;;;;;25.25;3.05;;;;;;;4.21;37.49;102535.44;5030987;28;20044;-71
2022/01/30 11:32:27;;;;;;;31.73;2.95;;;;;;;4.06;37.07;102520.56;5028032;28;20095;-71
2022/01/30 11:34:55;;;;;;;28.73;3.92;;;;;;;4.80;36.03;102518.88;5020340;28;20048;-71
2022/01/30 11:37:23;;;;;;;27.58;3.20;;;;;;;4.56;36.50;102509.09;5034379;28;20032;-70
2022/01/30 11:39:52;;;;;;;22.33;2.67;;;;;;;4.78;36.62;102503.31;5019957;28;20065;-71
2022/01/30 11:42:25;;;;;;;28.00;4.05;;;;;;;5.61;35.00;102498.00;5020566;28;20033;-71
2022/01/30 11:45:16;;;;;;;12.88;2.47;;;;;;;5.75;34.99;102500.66;5008970;28;21295;-73
2022/01/30 11:47:52;;;;;;;14.27;2.67;;;;;;;6.24;34.32;102494.03;5015864;28;20033;-71
2022/01/30 11:50:20;;;;;;;27.25;2.35;;;;;;;6.16;34.42;102510.44;5016531;28;20041;-71
2022/01/30 11:52:58;;;;;;;24.92;2.90;;;;;;;6.66;32.96;102509.75;5019355;28;20449;-71
2022/01/30 11:55:49;;;;;;;25.38;4.00;;;;;;;6.17;33.21;102504.34;5020296;28;20107;-71
2022/01/30 11:58:30;;;;;;;19.08;2.55;;;;;;;5.54;34.13;102502.25;5015936;28;20774;-71
2022/01/30 12:00:57;;;;;;;19.15;2.50;;;;;;;5.78;33.81;102506.75;5035062;28;20029;-71
2022/01/30 12:03:29;;;;;;;19.65;3.85;;;;;;;5.39;35.31;102520.31;5034682;28;20160;-71
2022/01/30 12:05:57;;;;;;;18.52;2.55;;;;;;;5.09;36.22;102518.31;5017545;28;20482;-71
2022/01/30 12:08:44;;;;;;;25.98;3.50;;;;;;;5.45;36.10;102512.56;5019027;28;20525;-71
2022/01/30 12:11:34;;;;;;;35.30;4.05;;;;;;;5.12;37.20;102516.59;5033748;28;20052;-70
2022/01/30 12:14:20;;;;;;;27.48;2.75;;;;;;;4.83;38.44;102519.78;5020381;28;20056;-71
2022/01/30 12:16:48;;;;;;;34.45;5.68;;;;;;;3.95;41.44;102520.41;5013910;28;20052;-71
2022/01/30 12:19:39;;;;;;;20.67;3.47;;;;;;;4.43;40.77;102528.78;5017767;28;20069;-71
2022/01/30 12:22:16;;;;;;;24.98;3.05;;;;;;;4.59;41.40;102533.31;5009388;28;20049;-71
2022/01/30 12:24:47;;;;;;;24.58;3.88;;;;;;;4.31;41.38;102526.94;5018206;28;20143;-71
2022/01/30 12:27:12;;;;;;;35.53;4.28;;;;;;;4.49;41.35;102522.84;5018264;28;20029;-71
2022/01/30 12:29:52;;;;;;;27.50;4.47;;;;;;;4.68;40.33;102506.66;5029580;28;20033;-71
2022/01/30 12:32:21;;;;;;;29.33;3.88;;;;;;;4.87;39.57;102502.53;5016702;28;20064;-72
2022/01/30 12:34:52;;;;;;;24.08;4.32;;;;;;;5.04;38.44;102487.19;5034356;28;20049;-72
2022/01/30 12:37:28;;;;;;;24.67;3.25;;;;;;;4.94;38.46;102482.75;5034653;28;20406;-72
2022/01/30 12:39:55;;;;;;;32.67;3.70;;;;;;;4.42;38.69;102476.16;5015694;28;20048;-72